Tumi Litli — 2504 — position and weather

sailwx.info

Track history (hours):
 
Tides and Currents Weather Stations Pressure Air Temp Water Temp Dewpoint Dewpoint Depression Visibility Wind Speed Wind Dir Waves Ship Positions

Tumi Litli

Last reported at 2017-Nov-09 09:58 UTC. Time now 2017-Nov-20 23:05 UTC.
Position N 22°15' E 113°21'.
Warning: this ship's position is 11 days out of date.

Length 10 m.

Type: Fishing. MMSI: 251402340.

Date/timePositionNaut miles runAvg speedWind from/ knotsBaromVisibWave heightAir tempDewpointWater temp
2017-Nov-09 09:58N 22°15' E 113°21'4 7.4
2017-Nov-09 09:27N 22°13' E 113°24'4 9.2
2017-Nov-09 09:00N 22°10' E 113°27'4 8.8
2017-Nov-09 08:30N 22°10' E 113°32'4 8.3
2017-Nov-09 08:00N 22°11' E 113°36'4 8.6
2017-Nov-09 07:30N 22°15' E 113°37'3 5.3
2017-Nov-09 06:59N 22°17' E 113°35'0 0.0
2017-Nov-09 06:29N 22°17' E 113°35'0 0.0
2017-Nov-09 05:46N 22°17' E 113°35'2 6.4
2017-Nov-09 05:29N 22°17' E 113°37'4 7.8
2017-Nov-09 05:00N 22°15' E 113°40'5 9.0
2017-Nov-09 04:30N 22°13' E 113°45'4 8.7
2017-Nov-09 04:01N 22°12' E 113°49'  
Track history (hours):
 
Tides and Currents Weather Stations Pressure Air Temp Water Temp Dewpoint Dewpoint Depression Visibility Wind Speed Wind Dir Waves Ship Positions

Tumi Litli

Last reported at 2017-Nov-09 09:58 UTC. Time now 2017-Nov-20 23:05 UTC.
Position N 22°15' E 113°21'.
Warning: this ship's position is 11 days out of date.

Length 10 m.

Type: Fishing. MMSI: 251402340.

Date/timePositionNaut miles runAvg speedWind from/ knotsBaromVisibWave heightAir tempDewpointWater temp
2017-Nov-09 09:58N 22°15' E 113°21'4 7.4
2017-Nov-09 09:27N 22°13' E 113°24'4 9.2
2017-Nov-09 09:00N 22°10' E 113°27'4 8.8
2017-Nov-09 08:30N 22°10' E 113°32'4 8.3
2017-Nov-09 08:00N 22°11' E 113°36'4 8.6
2017-Nov-09 07:30N 22°15' E 113°37'3 5.3
2017-Nov-09 06:59N 22°17' E 113°35'0 0.0
2017-Nov-09 06:29N 22°17' E 113°35'0 0.0
2017-Nov-09 05:46N 22°17' E 113°35'2 6.4
2017-Nov-09 05:29N 22°17' E 113°37'4 7.8
2017-Nov-09 05:00N 22°15' E 113°40'5 9.0
2017-Nov-09 04:30N 22°13' E 113°45'4 8.7
2017-Nov-09 04:01N 22°12' E 113°49'  

Dump ship's entire track history